createdAt,value
2016-11-16T00:00:11.319Z,0
2016-11-16T00:01:10.531Z,0
2016-11-16T00:02:10.821Z,0
2016-11-16T00:03:11.592Z,0
2016-11-16T00:04:10.191Z,0
2016-11-16T00:05:10.381Z,0
2016-11-16T00:06:11.588Z,0
2016-11-16T00:07:09.584Z,0
2016-11-16T00:08:10.712Z,0
2016-11-16T00:09:08.772Z,0
2016-11-16T00:10:09.342Z,0
2016-11-16T00:11:10.393Z,0
2016-11-16T00:12:09.691Z,0
2016-11-16T00:13:10.233Z,0
2016-11-16T00:14:10.972Z,0
2016-11-16T00:15:10.611Z,0
2016-11-16T00:16:10.694Z,0
2016-11-16T00:17:09.604Z,0
2016-11-16T00:18:11.143Z,0
2016-11-16T00:19:10.222Z,0
2016-11-16T00:20:10.513Z,0
2016-11-16T00:21:10.182Z,0
2016-11-16T00:22:11.083Z,0
2016-11-16T00:23:08.910Z,0
2016-11-16T00:24:10.523Z,0
2016-11-16T00:25:10.621Z,0
2016-11-16T00:26:09.679Z,0
2016-11-16T00:27:09.198Z,0
2016-11-16T00:28:10.035Z,0
2016-11-16T00:29:09.973Z,0
2016-11-16T00:30:09.342Z,0
2016-11-16T00:31:09.334Z,0
2016-11-16T00:32:09.464Z,0
2016-11-16T00:33:10.364Z,0
2016-11-16T00:34:09.858Z,0
2016-11-16T00:35:09.619Z,0
2016-11-16T00:36:10.293Z,0
2016-11-16T00:37:10.124Z,0
2016-11-16T00:38:09.208Z,0
2016-11-16T00:39:09.598Z,0
2016-11-16T00:40:10.034Z,0
2016-11-16T00:41:08.973Z,0
2016-11-16T00:42:10.130Z,0
2016-11-16T00:43:10.395Z,0
2016-11-16T00:44:09.228Z,0
2016-11-16T00:45:09.110Z,0
2016-11-16T00:46:09.372Z,0
2016-11-16T00:47:10.340Z,0
2016-11-16T00:48:09.934Z,0
2016-11-16T00:49:08.943Z,0
2016-11-16T00:50:09.198Z,0
2016-11-16T00:51:09.075Z,0
2016-11-16T00:52:09.593Z,0
2016-11-16T00:53:09.574Z,0
2016-11-16T00:54:10.000Z,0
2016-11-16T00:55:09.455Z,0
2016-11-16T00:56:09.128Z,0
2016-11-16T00:57:08.774Z,0
2016-11-16T00:58:09.241Z,0
2016-11-16T00:59:09.710Z,0
2016-11-16T01:00:09.413Z,0
2016-11-16T01:01:09.522Z,0
2016-11-16T01:02:10.304Z,0
2016-11-16T01:03:10.395Z,0
2016-11-16T01:04:08.624Z,0
2016-11-16T01:05:09.203Z,0
2016-11-16T01:06:08.828Z,0
2016-11-16T01:07:09.974Z,0
2016-11-16T01:08:08.925Z,0
2016-11-16T01:09:10.315Z,0
2016-11-16T01:10:09.118Z,0
2016-11-16T01:11:09.878Z,0
2016-11-16T01:12:09.861Z,0
2016-11-16T01:13:09.422Z,0
2016-11-16T01:14:09.229Z,0
2016-11-16T01:15:08.996Z,0
2016-11-16T01:16:09.216Z,0
2016-11-16T01:17:08.898Z,0
2016-11-16T01:18:07.845Z,0
2016-11-16T01:19:09.663Z,0
2016-11-16T01:20:08.036Z,0
2016-11-16T01:21:09.558Z,0
2016-11-16T01:22:08.061Z,0
2016-11-16T01:23:08.734Z,0
2016-11-16T01:24:08.233Z,0
2016-11-16T01:25:09.448Z,0
2016-11-16T01:26:08.675Z,0
2016-11-16T01:27:07.384Z,0
2016-11-16T01:28:09.325Z,0
2016-11-16T01:29:08.881Z,0
2016-11-16T01:30:08.555Z,0
2016-11-16T01:31:08.365Z,0
2016-11-16T01:32:09.047Z,0
2016-11-16T01:33:09.915Z,0
2016-11-16T01:34:08.885Z,0
2016-11-16T01:35:08.123Z,0
2016-11-16T01:36:08.054Z,0
2016-11-16T01:37:09.273Z,0
2016-11-16T01:38:08.204Z,0
2016-11-16T01:39:08.920Z,0
2016-11-16T01:40:08.909Z,0
2016-11-16T01:41:08.692Z,0
2016-11-16T01:42:07.965Z,0
2016-11-16T01:43:08.294Z,0
2016-11-16T01:44:08.531Z,0
2016-11-16T01:45:07.706Z,0
2016-11-16T01:46:07.850Z,0
2016-11-16T01:47:08.286Z,0
2016-11-16T01:48:07.426Z,0
2016-11-16T01:49:09.161Z,0
2016-11-16T01:50:08.475Z,0
2016-11-16T01:51:09.023Z,0
2016-11-16T01:52:08.285Z,0
2016-11-16T01:53:08.209Z,0
2016-11-16T01:54:07.705Z,0
2016-11-16T01:55:07.455Z,0
2016-11-16T01:56:08.735Z,0
2016-11-16T01:57:08.996Z,0
2016-11-16T01:58:08.466Z,0
2016-11-16T01:59:08.222Z,0
2016-11-16T02:00:09.234Z,0
2016-11-16T02:01:07.485Z,0
2016-11-16T02:02:07.405Z,0
2016-11-16T02:03:08.060Z,0
2016-11-16T02:04:08.210Z,0
2016-11-16T02:05:08.490Z,0
2016-11-16T02:06:08.214Z,0
2016-11-16T02:07:07.144Z,0
2016-11-16T02:08:08.253Z,0
2016-11-16T02:09:08.459Z,0
2016-11-16T02:10:07.476Z,0
2016-11-16T02:11:07.338Z,0
2016-11-16T02:12:07.032Z,0
2016-11-16T02:13:08.046Z,0
2016-11-16T02:14:07.159Z,0
2016-11-16T02:15:08.905Z,0
2016-11-16T02:16:07.356Z,0
2016-11-16T02:17:07.987Z,0
2016-11-16T02:18:08.218Z,0
2016-11-16T02:19:08.415Z,0
2016-11-16T02:20:08.147Z,0
2016-11-16T02:21:07.086Z,0
2016-11-16T02:22:06.935Z,0
2016-11-16T02:23:07.045Z,0
2016-11-16T02:24:07.446Z,0
2016-11-16T02:25:07.846Z,0
2016-11-16T02:26:08.945Z,0
2016-11-16T02:27:08.469Z,0
2016-11-16T02:28:08.234Z,0
2016-11-16T02:29:07.684Z,0
2016-11-16T02:30:07.726Z,0
2016-11-16T02:31:07.971Z,0
2016-11-16T02:32:07.056Z,0
2016-11-16T02:33:07.664Z,0
2016-11-16T02:34:07.868Z,0
2016-11-16T02:35:08.054Z,0
2016-11-16T02:36:06.235Z,0
2016-11-16T02:37:07.894Z,0
2016-11-16T02:38:07.889Z,0
2016-11-16T02:39:06.866Z,0
2016-11-16T02:40:07.054Z,0
2016-11-16T02:41:07.865Z,0
2016-11-16T02:42:08.172Z,0
2016-11-16T02:43:08.012Z,0
2016-11-16T02:44:07.484Z,0
2016-11-16T02:45:07.102Z,0
2016-11-16T02:46:08.093Z,0
2016-11-16T02:47:06.604Z,0
2016-11-16T02:48:07.411Z,0
2016-11-16T02:49:07.583Z,0
2016-11-16T02:50:07.391Z,0
2016-11-16T02:51:07.213Z,0
2016-11-16T02:52:06.437Z,0
2016-11-16T02:53:06.657Z,0
2016-11-16T02:54:07.723Z,0
2016-11-16T02:55:06.963Z,0
2016-11-16T02:56:08.302Z,0
2016-11-16T02:57:06.001Z,0
2016-11-16T02:58:06.963Z,0
2016-11-16T02:59:07.063Z,0
2016-11-16T03:00:07.572Z,0
2016-11-16T03:01:06.121Z,0
2016-11-16T03:02:07.460Z,0
2016-11-16T03:03:07.092Z,0
2016-11-16T03:04:06.679Z,0
2016-11-16T03:05:07.752Z,0
2016-11-16T03:06:06.998Z,0
2016-11-16T03:07:05.780Z,0
2016-11-16T03:08:07.619Z,0
2016-11-16T03:09:06.624Z,0
2016-11-16T03:10:07.050Z,0
2016-11-16T03:11:05.921Z,0
2016-11-16T03:12:07.190Z,0
2016-11-16T03:13:07.364Z,0
2016-11-16T03:14:07.279Z,0
2016-11-16T03:15:05.982Z,0
2016-11-16T03:16:07.549Z,0
2016-11-16T03:17:06.818Z,0
2016-11-16T03:18:07.138Z,0
2016-11-16T03:19:06.558Z,0
2016-11-16T03:20:07.087Z,0
2016-11-16T03:21:06.457Z,0
2016-11-16T03:22:07.087Z,0
2016-11-16T03:23:07.786Z,0
2016-11-16T03:24:06.562Z,0
2016-11-16T03:25:06.216Z,0
2016-11-16T03:26:06.487Z,0
2016-11-16T03:27:07.284Z,0
2016-11-16T03:28:06.477Z,0
2016-11-16T03:29:06.838Z,0
2016-11-16T03:30:07.017Z,0
2016-11-16T03:31:06.367Z,0
2016-11-16T03:32:06.977Z,0
2016-11-16T03:33:07.581Z,0
2016-11-16T03:34:05.623Z,0
2016-11-16T03:35:07.147Z,0
2016-11-16T03:36:06.533Z,0
2016-11-16T03:37:06.797Z,0
2016-11-16T03:38:05.677Z,0
2016-11-16T03:39:06.800Z,0
2016-11-16T03:40:06.182Z,0
2016-11-16T03:41:06.215Z,0
2016-11-16T03:42:06.997Z,0
2016-11-16T03:43:06.750Z,0
2016-11-16T03:44:06.526Z,0
2016-11-16T03:45:07.378Z,0
2016-11-16T03:46:06.364Z,0
2016-11-16T03:47:06.775Z,0
2016-11-16T03:48:05.178Z,0
2016-11-16T03:49:06.865Z,0
2016-11-16T03:50:06.526Z,0
2016-11-16T03:51:06.722Z,0
2016-11-16T03:52:06.849Z,0
2016-11-16T03:53:06.486Z,0
2016-11-16T03:54:06.655Z,0
2016-11-16T03:55:06.538Z,0
2016-11-16T03:56:06.436Z,0
2016-11-16T03:57:05.792Z,0
2016-11-16T03:58:06.495Z,0
2016-11-16T03:59:06.538Z,0
2016-11-16T04:00:05.802Z,0
2016-11-16T04:01:06.407Z,0
2016-11-16T04:02:06.067Z,0
2016-11-16T04:03:06.196Z,0
2016-11-16T04:04:06.124Z,0
2016-11-16T04:05:05.750Z,0
2016-11-16T04:06:06.597Z,0
2016-11-16T04:07:05.476Z,0
2016-11-16T04:08:06.956Z,0
2016-11-16T04:09:06.505Z,0
2016-11-16T04:10:05.536Z,0
2016-11-16T04:11:06.068Z,0
2016-11-16T04:12:06.076Z,0
2016-11-16T04:13:05.192Z,0
2016-11-16T04:14:05.987Z,0
2016-11-16T04:15:05.424Z,0
2016-11-16T04:16:05.316Z,0
2016-11-16T04:17:05.216Z,0
2016-11-16T04:18:05.753Z,0
2016-11-16T04:19:06.288Z,0
2016-11-16T04:20:05.886Z,0
2016-11-16T04:21:06.718Z,0
2016-11-16T04:22:05.787Z,0
2016-11-16T04:23:06.610Z,0
2016-11-16T04:24:05.520Z,0
2016-11-16T04:25:06.463Z,0
2016-11-16T04:26:05.487Z,0
2016-11-16T04:27:05.327Z,0
2016-11-16T04:28:05.983Z,0
2016-11-16T04:29:05.957Z,0
2016-11-16T04:30:05.677Z,0
2016-11-16T04:31:05.407Z,0
2016-11-16T04:32:05.410Z,0
2016-11-16T04:33:05.297Z,0
2016-11-16T04:34:05.913Z,0
2016-11-16T04:35:04.726Z,0
2016-11-16T04:36:04.468Z,0
2016-11-16T04:37:04.405Z,0
2016-11-16T04:38:05.617Z,0
2016-11-16T04:39:06.192Z,0
2016-11-16T04:40:05.916Z,0
2016-11-16T04:41:05.238Z,0
2016-11-16T04:42:04.479Z,0
2016-11-16T04:43:04.783Z,0
2016-11-16T04:44:05.839Z,0
2016-11-16T04:45:05.529Z,0
2016-11-16T04:46:04.986Z,0
2016-11-16T04:47:05.732Z,0
2016-11-16T04:48:06.195Z,0
2016-11-16T04:49:05.462Z,0
2016-11-16T04:50:04.407Z,0
2016-11-16T04:51:05.279Z,0
2016-11-16T04:52:05.615Z,0
2016-11-16T04:53:04.227Z,0
2016-11-16T04:54:04.324Z,0
2016-11-16T04:55:04.556Z,0
2016-11-16T04:56:04.948Z,0
2016-11-16T04:57:05.589Z,0
2016-11-16T04:58:05.863Z,0
2016-11-16T04:59:05.136Z,0
2016-11-16T05:00:05.304Z,0
2016-11-16T05:01:05.257Z,0
2016-11-16T05:02:04.470Z,0
2016-11-16T05:03:04.811Z,0
2016-11-16T05:04:04.454Z,0
2016-11-16T05:05:04.646Z,0
2016-11-16T05:06:04.430Z,0
2016-11-16T05:07:05.385Z,0
2016-11-16T05:08:05.688Z,0
2016-11-16T05:09:04.464Z,0
2016-11-16T05:10:04.432Z,0
2016-11-16T05:11:05.048Z,0
2016-11-16T05:12:04.097Z,0
2016-11-16T05:13:03.917Z,0
2016-11-16T05:14:04.578Z,0
2016-11-16T05:15:04.806Z,0
2016-11-16T05:16:04.478Z,0
2016-11-16T05:17:05.051Z,0
2016-11-16T05:18:04.772Z,0
2016-11-16T05:19:04.167Z,0
2016-11-16T05:20:04.038Z,0
2016-11-16T05:21:05.115Z,0
2016-11-16T05:22:04.459Z,0
2016-11-16T05:23:04.299Z,0
2016-11-16T05:24:03.928Z,0
2016-11-16T05:25:05.439Z,0
2016-11-16T05:26:04.860Z,0
2016-11-16T05:27:04.228Z,0
2016-11-16T05:28:04.592Z,0
2016-11-16T05:29:04.094Z,0
2016-11-16T05:30:04.542Z,0
2016-11-16T05:31:04.202Z,0
2016-11-16T05:32:04.199Z,0
2016-11-16T05:33:04.639Z,0
2016-11-16T05:34:04.303Z,0
2016-11-16T05:35:03.456Z,0
2016-11-16T05:36:04.599Z,0
2016-11-16T05:37:03.852Z,0
2016-11-16T05:38:04.385Z,0
2016-11-16T05:39:05.033Z,0
2016-11-16T05:40:03.873Z,0
2016-11-16T05:41:05.130Z,0
2016-11-16T05:42:04.291Z,0
2016-11-16T05:43:04.184Z,0
2016-11-16T05:44:04.080Z,0
2016-11-16T05:45:03.451Z,0
2016-11-16T05:46:03.626Z,0
2016-11-16T05:47:04.279Z,0
2016-11-16T05:48:04.170Z,0
2016-11-16T05:49:03.725Z,0
2016-11-16T05:50:04.589Z,0
2016-11-16T05:51:04.301Z,0
2016-11-16T05:52:04.124Z,0
2016-11-16T05:53:03.391Z,0
2016-11-16T05:54:03.623Z,0
2016-11-16T05:55:04.091Z,0
2016-11-16T05:56:04.227Z,0
2016-11-16T05:57:04.697Z,0
2016-11-16T05:58:03.900Z,0
2016-11-16T05:59:04.230Z,0
2016-11-16T06:00:04.217Z,0
2016-11-16T06:01:03.729Z,0
2016-11-16T06:02:03.922Z,0
2016-11-16T06:03:03.251Z,0
2016-11-16T06:04:04.282Z,0
2016-11-16T06:05:02.805Z,0
2016-11-16T06:06:04.427Z,0
2016-11-16T06:07:03.275Z,0
2016-11-16T06:08:03.169Z,0
2016-11-16T06:09:02.790Z,0
2016-11-16T06:10:04.596Z,0
2016-11-16T06:11:03.052Z,0
2016-11-16T06:12:04.427Z,0
2016-11-16T06:13:04.389Z,0
2016-11-16T06:14:03.044Z,0
2016-11-16T06:15:03.443Z,0
2016-11-16T06:16:04.202Z,0
2016-11-16T06:17:04.177Z,0
2016-11-16T06:18:02.999Z,0
2016-11-16T06:19:03.652Z,0
2016-11-16T06:20:03.871Z,0
2016-11-16T06:21:02.945Z,0
2016-11-16T06:22:03.991Z,0
2016-11-16T06:23:04.222Z,0
2016-11-16T06:24:03.273Z,0
2016-11-16T06:25:02.473Z,0
2016-11-16T06:26:03.492Z,0
2016-11-16T06:27:03.622Z,0
2016-11-16T06:28:04.257Z,0
2016-11-16T06:29:03.251Z,0
2016-11-16T06:30:04.227Z,0
2016-11-16T06:31:02.923Z,0
2016-11-16T06:32:02.782Z,0
2016-11-16T06:33:03.662Z,0
2016-11-16T06:34:03.472Z,0
2016-11-16T06:35:02.666Z,0
2016-11-16T06:36:03.669Z,0
2016-11-16T06:37:02.981Z,0
2016-11-16T06:38:03.142Z,0
2016-11-16T06:39:02.356Z,0
2016-11-16T06:40:02.263Z,0
2016-11-16T06:41:03.380Z,0
2016-11-16T06:42:03.604Z,0
2016-11-16T06:43:03.120Z,0
2016-11-16T06:44:07.426Z,0
2016-11-16T06:45:03.383Z,0
2016-11-16T06:46:02.543Z,0
2016-11-16T06:47:02.934Z,0
2016-11-16T06:48:03.113Z,0
2016-11-16T06:49:03.011Z,0
2016-11-16T06:50:02.783Z,0
2016-11-16T06:51:02.262Z,0
2016-11-16T06:52:03.273Z,0
2016-11-16T06:53:03.118Z,0
2016-11-16T06:54:02.073Z,0
2016-11-16T06:55:01.953Z,0
2016-11-16T06:56:03.333Z,0
2016-11-16T06:57:03.699Z,0
2016-11-16T06:58:02.615Z,0
2016-11-16T06:59:03.018Z,0
2016-11-16T07:00:02.604Z,0
2016-11-16T07:01:01.485Z,0
2016-11-16T07:02:03.504Z,0
2016-11-16T07:03:02.394Z,0
2016-11-16T07:04:02.380Z,0
2016-11-16T07:05:02.849Z,0
2016-11-16T07:06:03.254Z,0
2016-11-16T07:07:02.014Z,0
2016-11-16T07:08:02.353Z,0
2016-11-16T07:09:02.763Z,0
2016-11-16T07:10:03.434Z,0
2016-11-16T07:11:03.277Z,0
2016-11-16T07:12:02.332Z,0
2016-11-16T07:13:02.823Z,0
2016-11-16T07:14:01.879Z,0
2016-11-16T07:15:03.214Z,0
2016-11-16T07:16:02.042Z,0
2016-11-16T07:17:02.344Z,0
2016-11-16T07:18:02.865Z,0
2016-11-16T07:19:02.831Z,0
2016-11-16T07:20:02.005Z,0
2016-11-16T07:21:02.433Z,0
2016-11-16T07:22:02.024Z,0
2016-11-16T07:23:02.784Z,0
2016-11-16T07:24:02.388Z,0
2016-11-16T07:25:02.204Z,0
2016-11-16T07:26:03.114Z,0
2016-11-16T07:27:01.010Z,0
2016-11-16T07:28:02.691Z,0
2016-11-16T07:29:02.245Z,0
2016-11-16T07:30:02.013Z,0
2016-11-16T07:31:00.997Z,0
2016-11-16T07:32:01.544Z,0
2016-11-16T07:33:01.775Z,0
2016-11-16T07:34:02.337Z,0
2016-11-16T07:35:02.856Z,0
2016-11-16T07:36:01.676Z,0
2016-11-16T07:37:01.665Z,0
2016-11-16T07:38:02.176Z,0
2016-11-16T07:39:02.945Z,0
2016-11-16T07:40:02.324Z,0
2016-11-16T07:41:02.065Z,0
2016-11-16T07:42:01.649Z,0
2016-11-16T07:43:01.465Z,0
2016-11-16T07:44:01.354Z,0
2016-11-16T07:45:02.378Z,0
2016-11-16T07:46:02.034Z,0
2016-11-16T07:47:00.661Z,0
2016-11-16T07:48:02.282Z,0
2016-11-16T07:49:01.630Z,0
2016-11-16T07:50:01.935Z,0
2016-11-16T07:51:02.644Z,0
2016-11-16T07:52:02.225Z,0
2016-11-16T07:53:01.810Z,0
2016-11-16T07:54:00.915Z,0
2016-11-16T07:55:00.145Z,0
2016-11-16T07:56:01.102Z,5
2016-11-16T07:57:01.513Z,5
2016-11-16T07:58:01.815Z,5
2016-11-16T07:59:00.564Z,5
2016-11-16T08:00:01.735Z,5
2016-11-16T08:01:00.924Z,5
2016-11-16T08:02:01.510Z,5
2016-11-16T08:03:01.456Z,5
2016-11-16T08:04:02.044Z,5
2016-11-16T08:05:01.706Z,5
2016-11-16T08:06:01.666Z,5
2016-11-16T08:07:00.936Z,5
2016-11-16T08:08:01.564Z,5
2016-11-16T08:09:01.095Z,5
2016-11-16T08:10:01.505Z,5
2016-11-16T08:11:01.009Z,5
2016-11-16T08:12:00.828Z,5
2016-11-16T08:13:01.104Z,5
2016-11-16T08:14:02.131Z,5
2016-11-16T08:15:00.775Z,5
2016-11-16T08:16:00.315Z,5
2016-11-16T08:17:01.555Z,5
2016-11-16T08:18:00.835Z,5
2016-11-16T08:19:00.460Z,5
2016-11-16T08:20:01.404Z,5
2016-11-16T08:21:00.644Z,5
2016-11-16T08:22:01.028Z,5
2016-11-16T08:23:01.025Z,5
2016-11-16T08:23:59.693Z,5
2016-11-16T08:25:00.222Z,10
2016-11-16T08:26:01.044Z,5
2016-11-16T08:27:01.572Z,5
2016-11-16T08:28:00.585Z,5
2016-11-16T08:29:00.766Z,10
2016-11-16T08:30:00.053Z,10
2016-11-16T08:31:01.367Z,10
2016-11-16T08:32:01.742Z,10
2016-11-16T08:33:00.404Z,10
2016-11-16T08:34:00.483Z,10
2016-11-16T08:35:00.670Z,10
2016-11-16T08:36:00.294Z,10
2016-11-16T08:37:01.055Z,10
2016-11-16T08:38:00.380Z,10
2016-11-16T08:38:59.249Z,10
2016-11-16T08:40:00.249Z,10
2016-11-16T08:41:01.635Z,10
2016-11-16T08:42:00.675Z,10
2016-11-16T08:43:01.134Z,10
2016-11-16T08:44:00.423Z,5
2016-11-16T08:45:01.535Z,5
2016-11-16T08:46:00.810Z,5
2016-11-16T08:47:01.066Z,5
2016-11-16T08:48:01.201Z,5
2016-11-16T08:49:00.752Z,5
2016-11-16T08:50:00.465Z,5
2016-11-16T08:50:59.580Z,5
2016-11-16T08:52:01.513Z,5
2016-11-16T08:53:00.294Z,5
2016-11-16T08:54:00.863Z,10
2016-11-16T08:55:00.034Z,15
2016-11-16T08:55:59.555Z,10
2016-11-16T08:56:59.092Z,10
2016-11-16T08:57:59.884Z,10
2016-11-16T08:59:00.856Z,10
2016-11-16T09:00:00.066Z,10
2016-11-16T09:01:00.352Z,10
2016-11-16T09:02:00.572Z,10
2016-11-16T09:03:00.715Z,10
2016-11-16T09:03:59.952Z,10
2016-11-16T09:04:59.721Z,5
2016-11-16T09:05:59.785Z,5
2016-11-16T09:07:00.495Z,5
2016-11-16T09:08:00.838Z,10
2016-11-16T09:08:59.897Z,5
2016-11-16T09:10:00.129Z,5
2016-11-16T09:11:01.074Z,10
2016-11-16T09:12:00.537Z,5
2016-11-16T09:13:00.503Z,5
2016-11-16T09:14:00.321Z,5
2016-11-16T09:14:59.255Z,5
2016-11-16T09:15:59.595Z,5
2016-11-16T09:17:01.085Z,5
2016-11-16T09:17:59.615Z,5
2016-11-16T09:18:59.097Z,5
2016-11-16T09:20:00.346Z,5
2016-11-16T09:21:00.100Z,5
2016-11-16T09:21:59.572Z,5
2016-11-16T09:23:00.414Z,5
2016-11-16T09:24:00.158Z,5
2016-11-16T09:25:00.365Z,5
2016-11-16T09:25:59.519Z,5
2016-11-16T09:27:00.260Z,5
2016-11-16T09:28:00.102Z,5
2016-11-16T09:28:59.435Z,5
2016-11-16T09:29:59.124Z,5
2016-11-16T09:30:59.407Z,5
2016-11-16T09:31:59.375Z,5
2016-11-16T09:32:59.975Z,10
2016-11-16T09:33:59.987Z,5
2016-11-16T09:34:58.638Z,5
2016-11-16T09:35:58.935Z,5
2016-11-16T09:36:59.154Z,5
2016-11-16T09:38:00.285Z,5
2016-11-16T09:38:59.210Z,5
2016-11-16T09:39:58.441Z,5
2016-11-16T09:40:59.555Z,5
2016-11-16T09:41:59.530Z,10
2016-11-16T09:42:59.890Z,10
2016-11-16T09:43:59.443Z,10
2016-11-16T09:44:59.484Z,10
2016-11-16T09:45:59.331Z,10
2016-11-16T09:46:58.474Z,10
2016-11-16T09:47:58.474Z,15
2016-11-16T09:48:57.811Z,15
2016-11-16T09:49:58.657Z,15
2016-11-16T09:50:58.644Z,20
2016-11-16T09:51:58.824Z,20
2016-11-16T09:52:58.997Z,20
2016-11-16T09:53:58.925Z,15
2016-11-16T09:54:58.846Z,15
2016-11-16T09:55:58.967Z,15
2016-11-16T09:56:59.895Z,15
2016-11-16T09:57:58.845Z,15
2016-11-16T09:58:58.994Z,10
2016-11-16T09:59:59.261Z,10
2016-11-16T10:00:58.802Z,15
2016-11-16T10:01:58.423Z,15
2016-11-16T10:02:59.575Z,15
2016-11-16T10:03:59.455Z,15
2016-11-16T10:04:59.864Z,20
2016-11-16T10:05:58.520Z,25
2016-11-16T10:06:58.674Z,25
2016-11-16T10:07:59.721Z,25
2016-11-16T10:08:58.495Z,30
2016-11-16T10:09:58.314Z,30
2016-11-16T10:10:58.415Z,25
2016-11-16T10:11:59.899Z,25
2016-11-16T10:12:59.298Z,25
2016-11-16T10:13:58.614Z,20
2016-11-16T10:14:58.630Z,15
2016-11-16T10:15:59.175Z,20
2016-11-16T10:16:58.843Z,20
2016-11-16T10:17:59.419Z,20
2016-11-16T10:18:59.163Z,25
2016-11-16T10:19:58.803Z,25
2016-11-16T10:20:59.389Z,25
2016-11-16T10:21:58.797Z,30
2016-11-16T10:22:59.443Z,25
2016-11-16T10:23:59.674Z,20
2016-11-16T10:24:59.709Z,20
2016-11-16T10:25:58.640Z,25
2016-11-16T10:26:57.747Z,25
2016-11-16T10:27:57.964Z,30
2016-11-16T10:28:59.455Z,25
2016-11-16T10:29:58.448Z,20
2016-11-16T10:30:58.260Z,25
2016-11-16T10:31:58.832Z,30
2016-11-16T10:32:58.144Z,30
2016-11-16T10:33:58.714Z,35
2016-11-16T10:34:58.609Z,35
2016-11-16T10:35:58.248Z,40
2016-11-16T10:36:58.884Z,35
2016-11-16T10:37:58.130Z,35
2016-11-16T10:38:59.250Z,30
2016-11-16T10:39:57.353Z,30
2016-11-16T10:40:58.906Z,30
2016-11-16T10:41:59.014Z,25
2016-11-16T10:42:57.209Z,25
2016-11-16T10:43:58.406Z,20
2016-11-16T10:44:58.819Z,20
2016-11-16T10:45:58.920Z,20
2016-11-16T10:46:58.932Z,15
2016-11-16T10:47:57.885Z,15
2016-11-16T10:48:58.864Z,15
2016-11-16T10:49:57.808Z,15
2016-11-16T10:50:57.474Z,15
2016-11-16T10:51:57.855Z,15
2016-11-16T10:52:57.775Z,20
2016-11-16T10:53:58.072Z,25
2016-11-16T10:54:58.464Z,20
2016-11-16T10:55:57.464Z,20
2016-11-16T10:56:57.463Z,20
2016-11-16T10:57:57.399Z,20
2016-11-16T10:58:58.823Z,20
2016-11-16T10:59:57.795Z,15
2016-11-16T11:00:57.895Z,15
2016-11-16T11:01:58.375Z,15
2016-11-16T11:02:58.375Z,15
2016-11-16T11:03:58.003Z,10
2016-11-16T11:04:58.490Z,15
2016-11-16T11:05:56.524Z,15
2016-11-16T11:06:58.451Z,15
2016-11-16T11:07:57.614Z,15
2016-11-16T11:08:57.274Z,15
2016-11-16T11:09:57.994Z,20
2016-11-16T11:10:58.362Z,20
2016-11-16T11:11:57.530Z,15
2016-11-16T11:12:59.049Z,15
2016-11-16T11:13:56.823Z,15
2016-11-16T11:14:56.839Z,15
2016-11-16T11:15:58.114Z,15
2016-11-16T11:16:57.784Z,20
2016-11-16T11:17:58.634Z,20
2016-11-16T11:18:57.394Z,20
2016-11-16T11:19:57.846Z,20
2016-11-16T11:20:58.013Z,20
2016-11-16T11:21:57.437Z,20
2016-11-16T11:22:56.495Z,20
2016-11-16T11:23:56.754Z,25
2016-11-16T11:24:58.505Z,20
2016-11-16T11:25:58.733Z,20
2016-11-16T11:26:58.035Z,35
2016-11-16T11:27:57.405Z,45
2016-11-16T11:28:58.168Z,45
2016-11-16T11:29:57.395Z,45
2016-11-16T11:30:58.695Z,40
2016-11-16T11:31:57.644Z,45
2016-11-16T11:32:56.672Z,55
2016-11-16T11:33:58.432Z,395
2016-11-16T11:34:57.273Z,90
2016-11-16T11:35:57.890Z,90
2016-11-16T11:36:58.450Z,95
2016-11-16T11:37:56.063Z,70
2016-11-16T11:38:56.722Z,60
2016-11-16T11:39:56.530Z,60
2016-11-16T11:40:57.403Z,50
2016-11-16T11:41:57.743Z,55
2016-11-16T11:42:56.882Z,50
2016-11-16T11:43:56.695Z,60
2016-11-16T11:44:56.736Z,160
2016-11-16T11:45:57.615Z,90
2016-11-16T11:46:56.484Z,80
2016-11-16T11:47:57.964Z,90
2016-11-16T11:48:57.634Z,85
2016-11-16T11:49:57.124Z,125
2016-11-16T11:50:56.422Z,95
2016-11-16T11:51:56.324Z,95
2016-11-16T11:52:56.802Z,55
2016-11-16T11:53:57.505Z,45
2016-11-16T11:54:56.764Z,45
2016-11-16T11:55:56.935Z,50
2016-11-16T11:56:57.585Z,55
2016-11-16T11:57:57.106Z,60
2016-11-16T11:58:57.366Z,65
2016-11-16T11:59:57.044Z,45
2016-11-16T12:00:56.155Z,45
2016-11-16T12:01:56.403Z,35
2016-11-16T12:02:55.893Z,45
2016-11-16T12:03:56.528Z,70
2016-11-16T12:04:56.905Z,80
2016-11-16T12:05:55.594Z,70
2016-11-16T12:06:56.333Z,85
2016-11-16T12:07:57.481Z,115
2016-11-16T12:08:56.256Z,125
2016-11-16T12:09:56.798Z,100
2016-11-16T12:10:55.782Z,90
2016-11-16T12:11:56.721Z,90
2016-11-16T12:12:56.554Z,90
2016-11-16T12:13:56.845Z,95
2016-11-16T12:14:56.424Z,85
2016-11-16T12:15:57.324Z,80
2016-11-16T12:16:56.159Z,165
2016-11-16T12:17:56.520Z,150
2016-11-16T12:18:56.013Z,210
2016-11-16T12:19:56.324Z,710
2016-11-16T12:20:56.394Z,160
2016-11-16T12:21:55.321Z,130
2016-11-16T12:22:57.145Z,160
2016-11-16T12:23:57.198Z,170
2016-11-16T12:24:56.463Z,125
2016-11-16T12:25:57.282Z,95
2016-11-16T12:26:56.844Z,85
2016-11-16T12:27:55.232Z,80
2016-11-16T12:28:56.337Z,55
2016-11-16T12:29:56.324Z,40
2016-11-16T12:30:57.214Z,45
2016-11-16T12:31:55.402Z,80
2016-11-16T12:32:56.070Z,185
2016-11-16T12:33:57.604Z,125
2016-11-16T12:34:57.119Z,115
2016-11-16T12:35:57.164Z,110
2016-11-16T12:36:56.736Z,100
2016-11-16T12:37:56.628Z,120
2016-11-16T12:38:56.004Z,120
2016-11-16T12:39:56.775Z,120
2016-11-16T12:40:56.692Z,335
2016-11-16T12:41:55.823Z,170
2016-11-16T12:42:56.353Z,280
2016-11-16T12:43:57.403Z,435
2016-11-16T12:44:56.288Z,135
2016-11-16T12:45:56.193Z,100
2016-11-16T12:46:55.860Z,90
2016-11-16T12:47:56.181Z,65
2016-11-16T12:48:55.469Z,75
2016-11-16T12:49:56.896Z,85
2016-11-16T12:50:56.493Z,165
2016-11-16T12:51:56.694Z,135
2016-11-16T12:52:56.272Z,140
2016-11-16T12:53:56.483Z,190
2016-11-16T12:54:56.816Z,235
2016-11-16T12:55:56.012Z,265
2016-11-16T12:56:55.963Z,330
2016-11-16T12:57:55.711Z,220
2016-11-16T12:58:56.154Z,150
2016-11-16T12:59:56.619Z,125
2016-11-16T13:00:57.173Z,125
2016-11-16T13:01:55.917Z,115
2016-11-16T13:02:56.080Z,100
2016-11-16T13:03:55.483Z,80
2016-11-16T13:04:55.961Z,80
2016-11-16T13:05:55.601Z,205
2016-11-16T13:06:55.732Z,335
2016-11-16T13:07:56.170Z,175
2016-11-16T13:08:55.880Z,130
2016-11-16T13:09:56.602Z,130
2016-11-16T13:10:55.242Z,100
2016-11-16T13:11:56.522Z,95
2016-11-16T13:12:55.002Z,90
2016-11-16T13:13:56.522Z,80
2016-11-16T13:14:56.155Z,75
2016-11-16T13:15:55.932Z,75
2016-11-16T13:16:56.077Z,85
2016-11-16T13:17:55.580Z,85
2016-11-16T13:18:55.705Z,65
2016-11-16T13:19:55.221Z,70
2016-11-16T13:20:56.144Z,70
2016-11-16T13:21:55.428Z,55
2016-11-16T13:22:55.383Z,75
2016-11-16T13:23:56.612Z,75
2016-11-16T13:24:55.111Z,65
2016-11-16T13:25:55.518Z,55
2016-11-16T13:26:56.697Z,50
2016-11-16T13:27:54.807Z,70
2016-11-16T13:28:55.313Z,130
2016-11-16T13:29:55.633Z,110
2016-11-16T13:30:55.519Z,95
2016-11-16T13:31:55.072Z,85
2016-11-16T13:32:55.426Z,70
2016-11-16T13:33:55.953Z,55
2016-11-16T13:34:56.412Z,55
2016-11-16T13:35:55.489Z,50
2016-11-16T13:36:55.273Z,45
2016-11-16T13:37:55.196Z,40
2016-11-16T13:38:54.979Z,40
2016-11-16T13:39:54.363Z,55
2016-11-16T13:40:55.001Z,65
2016-11-16T13:41:54.506Z,60
2016-11-16T13:42:55.138Z,50
2016-11-16T13:43:56.271Z,55
2016-11-16T13:44:54.870Z,60
2016-11-16T13:45:54.739Z,55
2016-11-16T13:46:55.068Z,45
2016-11-16T13:47:55.653Z,40
2016-11-16T13:48:54.887Z,40
2016-11-16T13:49:56.229Z,40
2016-11-16T13:50:55.982Z,30
2016-11-16T13:51:54.958Z,30
2016-11-16T13:52:55.312Z,25
2016-11-16T13:53:55.029Z,20
2016-11-16T13:54:54.958Z,15
2016-11-16T13:55:54.679Z,20
2016-11-16T13:56:54.639Z,20
2016-11-16T13:57:55.181Z,20
2016-11-16T13:58:55.095Z,30
2016-11-16T13:59:55.262Z,30
2016-11-16T14:00:55.113Z,35
2016-11-16T14:01:54.551Z,30
2016-11-16T14:02:55.146Z,25
2016-11-16T14:03:54.668Z,20
2016-11-16T14:04:56.050Z,20
2016-11-16T14:05:55.367Z,15
2016-11-16T14:06:55.270Z,15
2016-11-16T14:07:56.021Z,15
2016-11-16T14:08:55.037Z,20
2016-11-16T14:09:54.513Z,25
2016-11-16T14:10:55.451Z,25
2016-11-16T14:11:54.842Z,40
2016-11-16T14:12:54.600Z,40
2016-11-16T14:13:55.137Z,40
2016-11-16T14:14:55.190Z,35
2016-11-16T14:15:54.451Z,30
2016-11-16T14:16:55.471Z,25
2016-11-16T14:17:55.187Z,20
2016-11-16T14:18:55.028Z,15
2016-11-16T14:19:55.404Z,15
2016-11-16T14:20:54.611Z,15
2016-11-16T14:21:55.028Z,15
2016-11-16T14:22:54.548Z,15
2016-11-16T14:23:54.291Z,15
2016-11-16T14:24:54.450Z,20
2016-11-16T14:25:54.989Z,15
2016-11-16T14:26:54.174Z,20
2016-11-16T14:27:54.425Z,25
2016-11-16T14:28:54.470Z,30
2016-11-16T14:29:55.135Z,30
2016-11-16T14:30:54.271Z,30
2016-11-16T14:31:55.191Z,35
2016-11-16T14:32:54.808Z,35